Malabo, Equatorial Guinea

10:08 PM WAT on June 02, 2015 (GMT +0100)
Malabo | | Change Station
CLOSE
Current Station
Airport
Location: Malabo,
Elevation: 75 ft
Nearby Weather Stations

Elev 75 ft 3.76 °N, 8.71 °E | Updated 1 hour ago

Thunderstorm
Thunderstorm
79 °F
Feels Like 79 °F
N
6
Wind Variable Wind from WSW

Today
High -- | Low -- °F
--% Chance of Precip.
Yesterday
High -- | Low -- °F
Precip. -- in
6:13 AM 6:32 PM
Full, 100% visible
Pressure 29.89 in
Visibility 5.6 miles
Clouds Scattered Clouds 800 ft
Few 2000 ft
Mostly Cloudy 6000 ft
Dew Point 77 °F
Humidity 94%
Rainfall 0.00 in
Snow Depth Not available.
UV 0 out of 12
Pollen Not available.
Air Quality Not available.
Flu Activity Not available.
METAR FGSL 022000Z 24005KT 210V270 9000 TS SCT008 FEW020CB BKN060 26/25 Q1012 TEMPO 4000 TSRA

More Conditions Fewer Conditions

Pressure 29.89 in
Visibility 5.6 miles
Clouds Scattered Clouds 800 ft
Few 2000 ft
Mostly Cloudy 6000 ft
Dew Point 77 °F
Humidity 94%
Rainfall 0.00 in
Snow Depth Not available.
UV 0 out of 12
Pollen Not available.
Air Quality Not available.
Flu Activity Not available.
METAR FGSL 022000Z 24005KT 210V270 9000 TS SCT008 FEW020CB BKN060 26/25 Q1012 TEMPO 4000 TSRA

More Conditions Fewer Conditions

10-Day Weather Forecast

×

Almanac

Astronomy

Jun. 02, 2015 Rise Set
Actual Time
Civil Twilight
Nautical Twilight
Astronomical Twilight
Moon
Length of Visible Light
Length of Day
Tomorrow will be .
, % of the Moon is Illuminated

Today's Extremes

Country Highs Country Lows

Community

WunderPhotos

Upload Photos

1,826,034 photos uploaded!

WunderBlogs® & News

Nearby

Air Quality

  Air Quality AQ Index Pollutant
Not available.

Snow Depth

Station Depth Elevation

Earthquake Activity

City Distance Mag. Time & Date
Minimum magnitude displayed is 2.5.

Coastal Water Temperatures

Place Temperature

Stations

Nearby Weather Stations

Station Location Temp. Windchill Dew Point Humidity Wind Precip. Elev Updated Type